Terminal Aerodrome Forecast
Issued by NWS Rapid City, SD

Home | Current Version | Previous Version | Text Only | Print | Product List | Glossary Off
Versions: 1 2 3 4 5 6 7 8 9 10 11 12 13 14 15

518
FTUS43 KUNR 271120
TAFRAP
TAF
KRAP 271120Z 2712/2812 16008KT P6SM BKN100
     FM271700 17013G20KT P6SM SCT100
     FM280100 16006KT P6SM BKN100=

USA.gov is the U.S. government's official web portal to all federal, state and local government web resources and services.